Terminal Aerodrome Forecast
Issued by NWS

Home | Current Version | Previous Version | Text Only | Print | Product List | Glossary On
Versions: 1 2 3 4 5 6 7 8 9 10 11 12 13 14 15 16 17 18 19
000
FTUS46 KSEW 222300
TAFBFI
TAF
KBFI 222329Z 2300/2324 19005KT P6SM VCSH BKN030 BKN110 OVC250
     FM230400 VRB03KT P6SM OVC025
     FM230900 VRB03KT P6SM OVC015
     FM232000 23006KT P6SM BKN035 BKN110 BKN250=

USA.gov is the U.S. government's official web portal to all federal, state and local government web resources and services.